Time;durP1;ratioP1;P1;durP2;ratioP2;P2;SDS_P1;SDS_P2;PMS_P1;PMS_P2;Temp;Humidity;BMP_temperature;BMP_pressure;BME280_temperature;BME280_humidity;BME280_pressure;Samples;Min_cycle;Max_cycle;Signal;HPM_P1;HPM_P2
2022/12/12 00:03:45;;;;;;;31.35;22.65;;;;;;;-5.22;100.00;97718.59;15306268;19;20011;-79
2022/12/12 00:09:20;;;;;;;28.85;21.27;;;;;;;-5.21;100.00;97711.53;15297788;19;20019;-80
2022/12/12 00:14:45;;;;;;;30.60;23.17;;;;;;;-5.23;100.00;97711.63;15302688;19;20085;-80
2022/12/12 00:20:09;;;;;;;27.58;21.63;;;;;;;-5.22;100.00;97713.34;15297052;19;20018;-80
2022/12/12 00:25:37;;;;;;;29.27;21.98;;;;;;;-5.18;100.00;97721.91;15300910;19;20014;-81
2022/12/12 00:31:01;;;;;;;29.55;22.15;;;;;;;-5.17;100.00;97715.72;15296549;19;20025;-80
2022/12/12 00:36:28;;;;;;;31.13;23.23;;;;;;;-5.18;100.00;97720.16;15293840;19;20455;-79
2022/12/12 00:41:56;;;;;;;31.40;24.02;;;;;;;-5.18;100.00;97721.91;15306532;19;20363;-79
2022/12/12 00:47:21;;;;;;;31.52;23.35;;;;;;;-5.17;100.00;97726.22;15307120;19;20069;-80
2022/12/12 00:52:45;;;;;;;31.83;23.63;;;;;;;-5.17;100.00;97727.06;15294974;19;20070;-79
2022/12/12 00:58:13;;;;;;;33.67;24.10;;;;;;;-5.16;100.00;97733.19;15291507;19;20018;-79
2022/12/12 01:03:39;;;;;;;31.15;23.23;;;;;;;-5.15;100.00;97742.75;15297426;19;20010;-79
2022/12/12 01:09:10;;;;;;;30.27;22.52;;;;;;;-5.16;100.00;97744.53;15279713;19;20098;-58
2022/12/12 01:14:39;;;;;;;32.60;23.60;;;;;;;-5.15;100.00;97743.59;15284147;19;20011;-60
2022/12/12 01:20:04;;;;;;;30.42;22.92;;;;;;;-5.13;100.00;97751.41;15283713;19;20006;-61
2022/12/12 01:25:29;;;;;;;30.45;22.83;;;;;;;-5.13;100.00;97751.41;15287637;19;20094;-60
2022/12/12 01:30:56;;;;;;;26.85;20.88;;;;;;;-5.15;100.00;97750.63;15285515;19;20017;-60
2022/12/12 01:36:22;;;;;;;27.02;20.70;;;;;;;-5.14;100.00;97761.06;15286137;19;20018;-61
2022/12/12 01:41:47;;;;;;;23.70;18.50;;;;;;;-5.13;100.00;97743.53;15283963;19;20584;-59
2022/12/12 01:47:16;;;;;;;23.88;18.63;;;;;;;-5.15;100.00;97745.38;15290454;19;20033;-61
2022/12/12 01:52:46;;;;;;;24.98;18.55;;;;;;;-5.18;100.00;97746.41;15285240;19;20025;-61
2022/12/12 01:58:11;;;;;;;24.63;18.58;;;;;;;-5.24;100.00;97746.69;15285757;19;20380;-61
2022/12/12 02:03:38;;;;;;;23.08;17.80;;;;;;;-5.32;100.00;97739.22;15284857;19;20018;-60
2022/12/12 02:09:13;;;;;;;26.17;19.17;;;;;;;-5.36;100.00;97736.81;15281834;19;20425;-60
2022/12/12 02:14:42;;;;;;;25.27;18.77;;;;;;;-5.44;100.00;97743.34;15282144;19;20033;-61
2022/12/12 02:20:54;;;;;;;26.98;19.20;;;;;;;-5.48;100.00;97739.16;15279829;19;20020;-61
2022/12/12 02:26:51;;;;;;;25.08;18.95;;;;;;;-5.53;100.00;97741.19;15282127;19;20035;-60
2022/12/12 02:32:24;;;;;;;27.88;20.33;;;;;;;-5.53;100.00;97740.31;15280895;19;20086;-59
2022/12/12 02:37:56;;;;;;;27.33;20.42;;;;;;;-5.53;100.00;97742.94;15281594;19;20086;-62
2022/12/12 02:43:27;;;;;;;27.05;20.20;;;;;;;-5.57;100.00;97742.25;15280283;19;20366;-61
2022/12/12 02:49:01;;;;;;;26.60;20.52;;;;;;;-5.60;100.00;97745.88;15284391;19;20014;-61
2022/12/12 02:54:29;;;;;;;29.42;20.27;;;;;;;-5.63;100.00;97751.28;15277039;19;20086;-59
2022/12/12 02:59:57;;;;;;;27.73;20.55;;;;;;;-5.68;100.00;97755.91;15274684;19;20014;-61
2022/12/12 03:11:39;;;;;;;28.83;20.52;;;;;;;-5.74;100.00;97756.22;15276937;19;20082;-60
2022/12/12 03:17:09;;;;;;;29.92;21.55;;;;;;;-5.75;100.00;97757.97;15277452;19;20018;-60
2022/12/12 03:22:44;;;;;;;29.42;20.08;;;;;;;-5.72;100.00;97762.25;15278193;19;20024;-60
2022/12/12 03:28:13;;;;;;;27.10;19.67;;;;;;;-5.70;100.00;97770.03;15274083;19;20478;-61
2022/12/12 03:33:43;;;;;;;23.60;18.50;;;;;;;-5.67;100.00;97760.22;15277181;19;20044;-60
2022/12/12 03:39:17;;;;;;;24.05;18.23;;;;;;;-5.66;100.00;97761.09;15273029;19;20032;-59
2022/12/12 03:44:47;;;;;;;23.70;18.08;;;;;;;-5.70;100.00;97754.28;15276720;19;20093;-59
2022/12/12 03:50:17;;;;;;;23.65;17.20;;;;;;;-5.76;100.00;97755.44;15279319;19;20019;-60
2022/12/12 03:55:50;;;;;;;23.55;17.17;;;;;;;-5.83;100.00;97748.81;15280978;19;20484;-60
2022/12/12 04:01:19;;;;;;;23.23;17.77;;;;;;;-5.91;100.00;97751.81;15277851;19;20498;-60
2022/12/12 04:06:58;;;;;;;25.42;19.73;;;;;;;-5.96;100.00;97752.03;15278474;19;20026;-58
2022/12/12 04:18:22;;;;;;;22.10;17.58;;;;;;;-5.98;100.00;97760.88;15275555;19;20643;-60
2022/12/12 04:23:55;;;;;;;22.35;17.75;;;;;;;-5.97;100.00;97757.31;15273381;19;20018;-60
2022/12/12 04:29:33;;;;;;;17.63;14.57;;;;;;;-5.96;100.00;97764.28;15270529;19;20014;-59
2022/12/12 04:35:03;;;;;;;21.40;15.65;;;;;;;-5.99;100.00;97759.19;15288264;19;20047;-60
2022/12/12 04:40:31;;;;;;;18.83;14.55;;;;;;;-5.99;100.00;97760.03;15293832;19;20086;-57
2022/12/12 04:46:03;;;;;;;19.67;15.55;;;;;;;-6.00;100.00;97755.75;15293431;19;20067;-58
2022/12/12 04:51:33;;;;;;;21.42;15.57;;;;;;;-6.00;100.00;97768.84;15286519;19;20022;-60
2022/12/12 04:57:03;;;;;;;17.88;14.32;;;;;;;-6.02;100.00;97770.69;15288474;19;20432;-60
2022/12/12 05:02:38;;;;;;;17.77;14.38;;;;;;;-6.04;100.00;97775.16;15285764;19;20022;-60
2022/12/12 05:08:09;;;;;;;18.65;14.70;;;;;;;-6.07;100.00;97772.72;15284327;19;20030;-58
2022/12/12 05:13:37;;;;;;;15.15;13.02;;;;;;;-6.10;100.00;97768.44;15292861;19;20418;-57
2022/12/12 05:19:05;;;;;;;16.77;13.77;;;;;;;-6.13;100.00;97778.22;15285618;19;20050;-59
2022/12/12 05:24:30;;;;;;;19.35;14.10;;;;;;;-6.18;100.00;97785.47;15286359;19;20010;-60
2022/12/12 05:29:56;;;;;;;18.77;15.00;;;;;;;-6.20;100.00;97782.91;15280669;19;20029;-60
2022/12/12 05:35:24;;;;;;;17.80;14.73;;;;;;;-6.21;100.00;97784.69;15279227;19;20064;-60
2022/12/12 05:40:50;;;;;;;19.48;16.52;;;;;;;-6.22;100.00;97788.25;15278090;19;20048;-56
2022/12/12 05:46:15;;;;;;;20.67;16.65;;;;;;;-6.28;100.00;97782.44;15279671;19;20014;-59
2022/12/12 05:51:43;;;;;;;19.05;15.35;;;;;;;-6.32;100.00;97778.25;15276301;19;20074;-60
2022/12/12 05:57:08;;;;;;;18.08;14.20;;;;;;;-6.36;100.00;97783.66;15274360;19;20016;-61
2022/12/12 06:02:33;;;;;;;18.15;14.93;;;;;;;-6.34;100.00;97778.34;15270943;19;20014;-59
2022/12/12 06:08:07;;;;;;;18.77;14.40;;;;;;;-6.33;100.00;97784.41;15274341;19;20707;-59
2022/12/12 06:13:32;;;;;;;17.38;13.57;;;;;;;-6.30;100.00;97786.91;15280075;19;20029;-59
2022/12/12 06:18:59;;;;;;;16.67;13.75;;;;;;;-6.27;100.00;97787.59;15277415;19;20060;-59
2022/12/12 06:24:27;;;;;;;15.38;13.15;;;;;;;-6.23;100.00;97789.16;15276864;19;20023;-61
2022/12/12 06:29:51;;;;;;;16.70;13.95;;;;;;;-6.17;100.00;97792.44;15279070;19;20018;-59
2022/12/12 06:35:16;;;;;;;17.02;14.52;;;;;;;-6.11;100.00;97805.25;15274627;19;20014;-59
2022/12/12 06:40:46;;;;;;;18.25;15.30;;;;;;;-6.05;100.00;97804.94;15274154;19;20023;-59
2022/12/12 06:46:15;;;;;;;18.17;14.50;;;;;;;-6.00;100.00;97808.19;15274016;19;20055;-59
2022/12/12 06:51:42;;;;;;;16.45;14.30;;;;;;;-5.97;100.00;97818.53;15274694;19;20094;-60
2022/12/12 06:57:11;;;;;;;17.45;14.27;;;;;;;-5.96;100.00;97822.84;15271453;19;20472;-58
2022/12/12 07:02:35;;;;;;;16.88;13.55;;;;;;;-5.96;100.00;97816.72;15272017;19;20023;-58
2022/12/12 07:08:01;;;;;;;19.73;15.57;;;;;;;-6.00;100.00;97815.22;15267412;19;20028;-59
2022/12/12 07:13:28;;;;;;;17.88;13.27;;;;;;;-6.01;100.00;97822.22;15274549;19;20022;-59
2022/12/12 07:18:53;;;;;;;15.98;13.50;;;;;;;-6.00;100.00;97831.81;15272625;19;20769;-60
2022/12/12 07:24:18;;;;;;;17.02;13.25;;;;;;;-6.05;100.00;97836.41;15273667;19;20080;-60
2022/12/12 07:29:46;;;;;;;18.92;14.18;;;;;;;-6.03;100.00;97842.44;15272783;19;20030;-59
2022/12/12 07:35:11;;;;;;;18.42;14.82;;;;;;;-6.08;100.00;97849.69;15274668;19;20472;-62
2022/12/12 07:40:36;;;;;;;19.17;15.43;;;;;;;-6.05;100.00;97849.50;15269510;19;20182;-60
2022/12/12 07:46:03;;;;;;;20.98;16.10;;;;;;;-6.07;100.00;97852.22;15269863;19;20014;-60
2022/12/12 07:51:29;;;;;;;21.38;16.27;;;;;;;-6.03;100.00;97855.53;15266952;19;20025;-60
2022/12/12 07:56:54;;;;;;;20.42;15.95;;;;;;;-5.98;100.00;97864.03;15268038;19;20026;-61
2022/12/12 08:02:22;;;;;;;21.92;17.70;;;;;;;-5.93;100.00;97869.88;15267664;19;20025;-57
2022/12/12 08:07:46;;;;;;;24.13;18.10;;;;;;;-5.86;100.00;97875.69;15273927;19;20015;-61
2022/12/12 08:13:11;;;;;;;24.95;17.77;;;;;;;-5.78;100.00;97877.97;15286659;19;20020;-57
2022/12/12 08:18:39;;;;;;;22.48;16.25;;;;;;;-5.67;100.00;97894.03;15284670;19;20359;-59
2022/12/12 08:24:04;;;;;;;19.33;14.35;;;;;;;-5.58;100.00;97895.38;15283778;19;20025;-60
2022/12/12 08:29:29;;;;;;;18.88;14.73;;;;;;;-5.50;100.00;97901.13;15285418;19;20025;-61
2022/12/12 08:35:00;;;;;;;18.05;14.30;;;;;;;-5.41;100.00;97902.44;15284495;19;20029;-58
2022/12/12 08:40:25;;;;;;;17.08;13.30;;;;;;;-5.35;100.00;97906.56;15284178;19;20082;-60
2022/12/12 08:45:50;;;;;;;17.33;13.68;;;;;;;-5.28;100.00;97902.69;15284229;19;20029;-60
2022/12/12 08:51:17;;;;;;;17.63;13.38;;;;;;;-5.23;100.00;97918.25;15279458;19;20024;-61
2022/12/12 08:56:43;;;;;;;17.20;12.57;;;;;;;-5.18;100.00;97930.22;15283587;19;20021;-59
2022/12/12 09:02:07;;;;;;;17.55;13.15;;;;;;;-5.14;100.00;97923.03;15277808;19;20098;-59
2022/12/12 09:07:36;;;;;;;15.55;12.05;;;;;;;-5.09;100.00;97925.44;15281583;19;20077;-60
2022/12/12 09:13:01;;;;;;;16.23;12.70;;;;;;;-5.07;100.00;97929.69;15280284;19;20032;-58
2022/12/12 09:18:32;;;;;;;15.43;11.93;;;;;;;-5.03;100.00;97928.63;15280190;19;20404;-60
2022/12/12 09:24:09;;;;;;;16.60;12.68;;;;;;;-4.97;100.00;97933.56;15285700;19;20070;-60
2022/12/12 09:29:33;;;;;;;15.02;11.68;;;;;;;-4.90;100.00;97928.00;15279394;19;20085;-60
2022/12/12 09:34:58;;;;;;;15.23;12.15;;;;;;;-4.85;100.00;97934.72;15282292;19;20193;-60
2022/12/12 09:40:32;;;;;;;14.85;11.43;;;;;;;-4.74;100.00;97938.59;15278798;19;20094;-60
2022/12/12 09:45:58;;;;;;;14.27;11.73;;;;;;;-4.69;100.00;97942.69;15276258;19;20427;-60
2022/12/12 09:51:22;;;;;;;12.40;10.15;;;;;;;-4.62;100.00;97937.09;15279482;19;20025;-60
2022/12/12 09:57:14;;;;;;;11.98;9.65;;;;;;;-4.58;100.00;97942.13;15279386;19;20006;-60
2022/12/12 10:02:57;;;;;;;11.73;10.07;;;;;;;-4.51;100.00;97925.13;15275285;19;20022;-59
2022/12/12 10:08:27;;;;;;;11.25;9.18;;;;;;;-4.42;100.00;97928.19;15278235;19;20764;-59
2022/12/12 10:13:54;;;;;;;12.32;10.05;;;;;;;-4.32;100.00;97923.31;15279935;19;20018;-61
2022/12/12 10:19:26;;;;;;;11.85;9.93;;;;;;;-4.27;100.00;97929.16;15271137;19;20019;-59
2022/12/12 10:24:57;;;;;;;11.85;9.88;;;;;;;-4.22;100.00;97921.91;15280125;19;20078;-60
2022/12/12 10:30:25;;;;;;;10.02;8.77;;;;;;;-4.12;100.00;97925.75;15275108;19;20032;-60
2022/12/12 10:36:01;;;;;;;10.77;9.55;;;;;;;-4.05;100.00;97924.47;15277896;19;20025;-61
2022/12/12 10:41:35;;;;;;;12.10;9.90;;;;;;;-4.05;100.00;97921.00;15277188;19;20081;-58
2022/12/12 10:47:08;;;;;;;11.45;10.25;;;;;;;-4.09;100.00;97930.84;15276941;19;20568;-59
2022/12/12 10:52:33;;;;;;;12.48;10.13;;;;;;;-3.98;100.00;97925.00;15264612;19;20021;-61
2022/12/12 10:58:08;;;;;;;12.40;9.80;;;;;;;-4.01;100.00;97914.66;15276071;19;20550;-61
2022/12/12 11:03:40;;;;;;;10.57;9.48;;;;;;;-3.96;100.00;97911.78;15276833;19;20490;-59
2022/12/12 11:09:06;;;;;;;11.77;10.15;;;;;;;-3.97;100.00;97908.28;15274768;19;20098;-62
2022/12/12 11:14:35;;;;;;;11.23;9.75;;;;;;;-3.93;100.00;97903.69;15277840;19;20025;-62
2022/12/12 11:20:06;;;;;;;10.38;9.27;;;;;;;-3.92;100.00;97894.88;15273041;19;20019;-61
2022/12/12 11:25:33;;;;;;;11.82;9.20;;;;;;;-3.88;100.00;97893.78;15271380;19;20629;-61
2022/12/12 11:31:00;;;;;;;11.38;9.50;;;;;;;-3.80;100.00;97902.09;15273736;19;20019;-61
2022/12/12 11:36:32;;;;;;;9.48;8.48;;;;;;;-3.77;100.00;97904.56;15274551;19;20467;-59
2022/12/12 11:42:10;;;;;;;10.95;9.13;;;;;;;-3.62;100.00;97907.28;15284820;19;20034;-62
2022/12/12 11:47:42;;;;;;;9.63;8.63;;;;;;;-3.47;100.00;97905.56;15306898;19;20538;-62
2022/12/12 11:53:09;;;;;;;9.68;8.48;;;;;;;-3.48;100.00;97909.13;15302555;19;20033;-61
2022/12/12 11:58:39;;;;;;;9.02;8.13;;;;;;;-3.43;100.00;97907.94;15298623;19;20029;-62
2022/12/12 12:04:30;;;;;;;10.98;7.82;;;;;;;-3.43;100.00;97902.69;15304973;19;20020;-62
2022/12/12 12:10:10;;;;;;;9.80;8.80;;;;;;;-3.35;100.00;97906.69;15299253;19;20018;-61
2022/12/12 12:15:48;;;;;;;9.18;8.20;;;;;;;-3.27;100.00;97899.19;15298164;19;20098;-61
2022/12/12 12:21:33;;;;;;;9.25;8.25;;;;;;;-3.22;100.00;97905.03;15297216;19;20019;-60
2022/12/12 12:27:10;;;;;;;10.48;8.10;;;;;;;-3.20;100.00;97904.97;15295815;19;20036;-59
2022/12/12 12:32:42;;;;;;;8.77;7.82;;;;;;;-3.10;100.00;97896.41;15296583;19;20408;-62
2022/12/12 12:38:25;;;;;;;8.18;7.28;;;;;;;-2.97;100.00;97898.34;15301369;19;20020;-60
2022/12/12 12:44:11;;;;;;;8.65;7.63;;;;;;;-2.88;100.00;97903.06;15296508;19;20474;-76
2022/12/12 12:49:43;;;;;;;7.70;6.90;;;;;;;-2.86;100.00;97906.47;15308809;19;20022;-76
2022/12/12 12:55:08;;;;;;;8.35;7.50;;;;;;;-2.97;100.00;97896.56;15292530;19;20022;-75
2022/12/12 13:00:37;;;;;;;8.35;7.45;;;;;;;-2.93;100.00;97886.69;15227181;19;20025;-74
2022/12/12 13:06:05;;;;;;;8.25;7.00;;;;;;;-2.96;100.00;97884.22;15291144;19;20018;-74
2022/12/12 13:11:37;;;;;;;7.15;6.45;;;;;;;-3.03;100.00;97890.81;15290804;19;20018;-76
2022/12/12 13:17:07;;;;;;;7.50;6.75;;;;;;;-3.09;100.00;97889.38;15289258;19;20082;-73
2022/12/12 13:22:45;;;;;;;7.10;6.40;;;;;;;-3.13;100.00;97882.56;15292032;19;20023;-77
2022/12/12 13:28:14;;;;;;;7.07;6.38;;;;;;;-3.16;100.00;97896.78;15232256;19;20022;-78
2022/12/12 13:33:47;;;;;;;7.05;6.35;;;;;;;-3.15;100.00;97890.59;15280214;19;20105;-75
2022/12/12 13:39:15;;;;;;;8.20;7.20;;;;;;;-3.15;100.00;97890.59;15287710;19;20527;-76
2022/12/12 13:44:43;;;;;;;7.22;6.53;;;;;;;-3.17;100.00;97892.44;15286285;19;20026;-76
2022/12/12 13:50:13;;;;;;;7.25;6.55;;;;;;;-3.17;100.00;97903.00;15292565;19;20011;-76
2022/12/12 13:55:39;;;;;;;8.95;6.80;;;;;;;-3.22;100.00;97899.75;15293102;19;20018;-76
2022/12/12 14:01:37;;;;;;;6.93;6.22;;;;;;;-3.29;100.00;97903.69;15290276;19;20102;-76
2022/12/12 14:07:08;;;;;;;8.07;6.93;;;;;;;-3.39;100.00;97907.78;15291425;19;20480;-77
2022/12/12 14:12:37;;;;;;;7.78;6.97;;;;;;;-3.46;100.00;97907.28;15285858;19;20832;-75
2022/12/12 14:18:04;;;;;;;7.22;6.45;;;;;;;-3.57;100.00;97916.63;15288136;19;20665;-76
2022/12/12 14:23:39;;;;;;;7.47;6.70;;;;;;;-3.61;100.00;97920.34;15281943;19;20028;-77
2022/12/12 14:29:25;;;;;;;8.07;7.28;;;;;;;-3.54;100.00;97926.13;15284759;19;20105;-77
2022/12/12 14:34:57;;;;;;;8.50;7.65;;;;;;;-3.50;100.00;97927.69;15280569;19;20014;-76
2022/12/12 14:40:29;;;;;;;8.27;7.47;;;;;;;-3.46;100.00;97928.34;15291281;19;20031;-77
2022/12/12 14:46:04;;;;;;;9.32;7.68;;;;;;;-3.48;100.00;97931.06;15316565;19;20351;-76
2022/12/12 14:51:32;;;;;;;9.18;7.90;;;;;;;-3.61;100.00;97935.31;15296931;19;20022;-79
2022/12/12 14:57:02;;;;;;;9.07;7.65;;;;;;;-3.66;100.00;97937.34;15287031;19;20015;-78
2022/12/12 15:02:37;;;;;;;8.88;7.97;;;;;;;-3.72;100.00;97941.16;15280782;19;20035;-79
2022/12/12 15:08:06;;;;;;;8.65;7.68;;;;;;;-3.77;100.00;97948.47;15271001;19;20482;-77
2022/12/12 15:13:34;;;;;;;10.20;9.13;;;;;;;-3.84;100.00;97947.94;15284474;19;20021;-76
2022/12/12 15:18:59;;;;;;;10.20;8.05;;;;;;;-3.93;100.00;97948.44;15269635;19;20010;-76
2022/12/12 15:24:27;;;;;;;8.75;7.70;;;;;;;-4.03;100.00;97955.97;15269089;19;20011;-75
2022/12/12 15:29:55;;;;;;;9.48;8.38;;;;;;;-4.13;100.00;97957.41;15272125;19;20027;-76
2022/12/12 15:35:23;;;;;;;8.63;7.63;;;;;;;-4.19;100.00;97961.19;15279684;19;20011;-77
2022/12/12 15:40:51;;;;;;;9.15;7.70;;;;;;;-4.29;100.00;97960.81;15265618;19;20116;-76
2022/12/12 15:46:19;;;;;;;10.35;8.27;;;;;;;-4.42;100.00;97950.09;15274153;19;20027;-76
2022/12/12 15:51:43;;;;;;;11.45;9.52;;;;;;;-4.49;100.00;97961.84;15263086;19;20026;-76
2022/12/12 15:57:15;;;;;;;10.15;9.05;;;;;;;-4.58;100.00;97964.94;15266254;19;20022;-76
2022/12/12 16:02:43;;;;;;;11.88;10.20;;;;;;;-4.74;100.00;97965.72;15254076;19;20018;-75
2022/12/12 16:08:32;;;;;;;13.07;10.00;;;;;;;-4.81;100.00;97959.06;15258879;19;20018;-75
2022/12/12 16:13:58;;;;;;;12.68;9.88;;;;;;;-4.87;100.00;97954.09;15250153;19;20028;-75
2022/12/12 16:19:38;;;;;;;12.95;10.80;;;;;;;-4.93;100.00;97954.44;15262131;19;20017;-75
2022/12/12 16:25:19;;;;;;;12.90;10.55;;;;;;;-5.01;100.00;97962.69;15248260;19;20015;-74
2022/12/12 16:30:46;;;;;;;13.27;11.05;;;;;;;-5.12;100.00;97963.22;15263795;19;20049;-75
2022/12/12 16:36:16;;;;;;;12.65;9.88;;;;;;;-5.25;100.00;97970.81;15278653;19;20768;-75
2022/12/12 16:41:42;;;;;;;14.57;11.18;;;;;;;-5.41;100.00;97965.47;15275234;19;20039;-75
2022/12/12 16:47:07;;;;;;;14.60;11.75;;;;;;;-5.47;100.00;97969.22;15278806;19;20015;-74
2022/12/12 16:52:34;;;;;;;17.13;13.20;;;;;;;-5.53;100.00;97966.03;15277084;19;20011;-74
2022/12/12 16:57:59;;;;;;;17.83;13.13;;;;;;;-5.58;100.00;97974.13;15273459;19;20030;-74
2022/12/12 17:03:25;;;;;;;13.80;11.10;;;;;;;-5.71;100.00;97989.59;15271803;19;20478;-73
2022/12/12 17:08:51;;;;;;;15.93;12.43;;;;;;;-5.80;100.00;97990.88;15279862;19;20025;-76
2022/12/12 17:14:20;;;;;;;15.35;12.70;;;;;;;-6.01;100.00;97992.69;15277059;19;20024;-75
2022/12/12 17:19:45;;;;;;;17.13;13.52;;;;;;;-6.15;100.00;97993.31;15278770;19;20029;-76
2022/12/12 17:25:13;;;;;;;18.67;14.88;;;;;;;-6.20;100.00;97985.66;15270698;19;20018;-75
2022/12/12 17:30:38;;;;;;;18.85;14.48;;;;;;;-6.20;100.00;97992.66;15272455;19;20023;-76
2022/12/12 17:36:06;;;;;;;18.48;14.48;;;;;;;-6.21;100.00;98001.44;15270445;19;20039;-75
2022/12/12 17:41:33;;;;;;;21.20;15.95;;;;;;;-6.21;100.00;98007.56;15256386;19;20022;-75
2022/12/12 17:46:59;;;;;;;21.88;15.30;;;;;;;-6.21;100.00;98011.94;15266225;19;20020;-75
2022/12/12 17:52:24;;;;;;;18.90;14.98;;;;;;;-6.25;100.00;98020.88;15260832;19;20498;-74
2022/12/12 17:57:52;;;;;;;18.85;14.10;;;;;;;-6.32;100.00;98014.16;15269650;19;20735;-74
2022/12/12 18:03:17;;;;;;;18.02;13.20;;;;;;;-6.39;100.00;98018.81;15277282;19;20036;-75
2022/12/12 18:08:43;;;;;;;15.82;12.00;;;;;;;-6.47;100.00;98016.56;15273637;19;20070;-76
2022/12/12 18:14:14;;;;;;;17.23;13.25;;;;;;;-6.51;100.00;98031.53;15271492;19;20023;-75
2022/12/12 18:19:39;;;;;;;15.25;11.98;;;;;;;-6.57;100.00;98030.94;15269817;19;20725;-75
2022/12/12 18:25:05;;;;;;;15.95;12.82;;;;;;;-6.72;100.00;98016.69;15269789;19;20332;-76
2022/12/12 18:30:32;;;;;;;18.23;13.35;;;;;;;-6.76;100.00;98008.13;15287042;19;20007;-76
2022/12/12 18:35:57;;;;;;;20.02;14.63;;;;;;;-6.75;100.00;98015.06;15306468;19;20048;-75
2022/12/12 18:41:30;;;;;;;20.95;14.88;;;;;;;-6.74;100.00;98016.78;15264148;19;20018;-74
2022/12/12 18:47:00;;;;;;;15.38;11.75;;;;;;;-6.81;100.00;98025.78;15274151;19;20352;-75
2022/12/12 18:52:27;;;;;;;18.25;13.30;;;;;;;-6.94;100.00;98032.47;15274514;19;20039;-76
2022/12/12 18:57:51;;;;;;;19.45;14.82;;;;;;;-6.99;100.00;98046.59;15282048;19;20113;-75
2022/12/12 19:03:23;;;;;;;21.20;13.30;;;;;;;-7.01;100.00;98050.19;15272063;19;20026;-74
2022/12/12 19:08:51;;;;;;;18.88;14.27;;;;;;;-7.10;100.00;98048.78;15273139;19;20021;-74
2022/12/12 19:14:18;;;;;;;16.60;12.63;;;;;;;-7.15;100.00;98046.34;15282363;19;20026;-74
2022/12/12 19:19:55;;;;;;;19.20;13.38;;;;;;;-7.19;100.00;98039.50;15275770;19;20010;-75
2022/12/12 19:25:20;;;;;;;21.02;15.13;;;;;;;-7.20;100.00;98037.81;15277628;19;20014;-76
2022/12/12 19:30:45;;;;;;;19.88;14.68;;;;;;;-7.17;100.00;98037.69;15283152;19;20022;-76
2022/12/12 19:36:21;;;;;;;21.60;15.90;;;;;;;-7.15;100.00;98051.56;15276941;19;20019;-76
2022/12/12 19:41:45;;;;;;;23.23;15.63;;;;;;;-7.12;100.00;98054.06;15267329;19;20443;-77
2022/12/12 19:47:10;;;;;;;26.77;16.98;;;;;;;-7.10;100.00;98056.63;15279368;19;20011;-74
2022/12/12 19:52:37;;;;;;;24.52;16.70;;;;;;;-7.12;100.00;98063.69;15277230;19;20017;-75
2022/12/12 19:58:03;;;;;;;20.48;15.18;;;;;;;-7.12;100.00;98068.91;15247616;19;20081;-74
2022/12/12 20:03:29;;;;;;;20.05;14.43;;;;;;;-7.16;100.00;98057.72;15282871;19;20019;-76
2022/12/12 20:08:57;;;;;;;25.00;15.68;;;;;;;-7.25;100.00;98055.47;15293468;19;20014;-76
2022/12/12 20:14:24;;;;;;;23.52;16.30;;;;;;;-7.31;100.00;98058.31;15285694;19;20025;-74
2022/12/12 20:19:49;;;;;;;26.25;17.40;;;;;;;-7.34;100.00;98053.19;15286656;19;20633;-76
2022/12/12 20:25:16;;;;;;;22.02;15.18;;;;;;;-7.37;100.00;98042.84;15288137;19;20097;-76
2022/12/12 20:30:41;;;;;;;22.15;15.07;;;;;;;-7.39;100.00;98062.97;15285614;19;20754;-76
2022/12/12 20:36:13;;;;;;;17.33;12.65;;;;;;;-7.46;100.00;98057.97;15288021;19;21036;-75
2022/12/12 20:41:43;;;;;;;14.90;11.35;;;;;;;-7.54;100.00;98065.25;15280042;19;20006;-75
2022/12/12 20:47:13;;;;;;;15.55;11.98;;;;;;;-7.60;100.00;98068.13;15289580;19;20014;-74
2022/12/12 20:52:38;;;;;;;15.32;12.85;;;;;;;-7.66;100.00;98053.50;15278581;19;20019;-54
2022/12/12 20:58:06;;;;;;;16.80;12.95;;;;;;;-7.72;100.00;98048.50;15283457;19;20035;-49
2022/12/12 21:03:31;;;;;;;17.23;12.82;;;;;;;-7.74;100.00;98050.31;15272167;19;20023;-53
2022/12/12 21:08:56;;;;;;;17.35;12.85;;;;;;;-7.82;100.00;98050.56;15282030;19;20040;-50
2022/12/12 21:14:24;;;;;;;17.35;13.45;;;;;;;-7.97;100.00;98051.16;15273889;19;20026;-52
2022/12/12 21:19:50;;;;;;;18.45;14.00;;;;;;;-8.00;100.00;98051.25;15283213;19;20010;-50
2022/12/12 21:25:23;;;;;;;18.65;13.80;;;;;;;-8.06;100.00;98063.66;15288217;19;20105;-52
2022/12/12 21:30:51;;;;;;;16.95;13.05;;;;;;;-8.12;100.00;98063.84;15288516;19;20019;-53
2022/12/12 21:36:18;;;;;;;16.52;12.80;;;;;;;-8.18;100.00;98066.69;15272366;19;20021;-51
2022/12/12 21:41:43;;;;;;;17.00;12.88;;;;;;;-8.21;100.00;98058.94;15278302;19;20015;-51
2022/12/12 21:47:10;;;;;;;17.83;14.57;;;;;;;-8.27;100.00;98060.03;15274173;19;20018;-50
2022/12/12 21:53:32;;;;;;;19.42;14.95;;;;;;;-8.28;100.00;98057.44;15277979;19;20018;-51
2022/12/12 21:58:26;;;;;;;16.27;12.93;;;;;;;-8.30;100.00;98052.28;15277335;19;20033;-51
2022/12/12 22:03:55;;;;;;;22.42;16.15;;;;;;;-8.27;100.00;98064.38;15277103;19;20025;-53
2022/12/12 22:09:19;;;;;;;31.90;20.73;;;;;;;-8.18;100.00;98068.44;15273610;19;20489;-49
2022/12/12 22:14:44;;;;;;;101.80;18.02;;;;;;;-8.11;100.00;98064.69;15275594;19;20014;-52
2022/12/12 22:20:13;;;;;;;55.75;20.45;;;;;;;-8.09;100.00;98071.59;15272481;19;20090;-52
2022/12/12 22:25:37;;;;;;;35.25;17.92;;;;;;;-8.05;100.00;98074.94;15275942;19;20021;-53
2022/12/12 22:31:06;;;;;;;67.38;19.20;;;;;;;-8.00;100.00;98072.16;15276183;19;20032;-52
2022/12/12 22:36:36;;;;;;;149.00;19.02;;;;;;;-7.98;100.00;98081.66;15271403;19;20014;-49
2022/12/12 22:42:02;;;;;;;54.33;18.85;;;;;;;-7.92;100.00;98076.22;15266616;19;20023;-51
2022/12/12 22:47:28;;;;;;;106.35;17.65;;;;;;;-7.91;100.00;98077.06;15273185;19;20801;-50
2022/12/12 22:52:56;;;;;;;34.83;16.00;;;;;;;-7.91;100.00;98071.84;15268826;19;20041;-55
2022/12/12 22:58:21;;;;;;;23.52;14.48;;;;;;;-7.95;100.00;98071.09;15273035;19;20024;-54
2022/12/12 23:03:47;;;;;;;20.40;14.57;;;;;;;-7.99;100.00;98072.09;15265983;19;20019;-53
2022/12/12 23:09:16;;;;;;;46.33;13.80;;;;;;;-8.20;100.00;98048.44;15271001;19;20433;-50
2022/12/12 23:14:40;;;;;;;31.13;15.35;;;;;;;-8.32;100.00;98045.41;15271147;19;20019;-52
2022/12/12 23:20:06;;;;;;;21.52;15.40;;;;;;;-8.41;100.00;98030.91;15273813;19;20022;-49
2022/12/12 23:25:34;;;;;;;19.33;13.95;;;;;;;-8.45;100.00;98037.13;15268914;19;20022;-54
2022/12/12 23:30:59;;;;;;;18.13;13.70;;;;;;;-8.49;100.00;98039.03;15274284;19;20021;-48
2022/12/12 23:36:24;;;;;;;16.23;11.85;;;;;;;-8.50;100.00;98037.31;15264968;19;20945;-49
2022/12/12 23:41:52;;;;;;;15.40;11.75;;;;;;;-8.55;100.00;98034.84;15272140;19;20074;-48
2022/12/12 23:47:16;;;;;;;14.15;11.23;;;;;;;-8.59;100.00;98038.50;15268202;19;21165;-51
2022/12/12 23:52:41;;;;;;;14.82;11.48;;;;;;;-8.64;100.00;98044.78;15267734;19;20010;-51
2022/12/12 23:58:08;;;;;;;13.65;10.70;;;;;;;-8.69;100.00;98030.13;15262078;19;20085;-50
